Time;durP1;ratioP1;P1;durP2;ratioP2;P2;SDS_P1;SDS_P2;PMS_P1;PMS_P2;Temp;Humidity;BMP_temperature;BMP_pressure;BME280_temperature;BME280_humidity;BME280_pressure;Samples;Min_cycle;Max_cycle;Signal;HPM_P1;HPM_P2
2023/11/20 00:01:48;;;;;;;;;;;;;;;28.09;21.54;97421.50;5093303;28;20326;-88
2023/11/20 00:04:14;;;;;;;;;;;;;;;27.62;22.31;97421.31;5093538;28;20283;-89
2023/11/20 00:06:40;;;;;;;;;;;;;;;27.90;22.22;97422.81;5075610;28;19916;-89
2023/11/20 00:09:10;;;;;;;;;;;;;;;28.05;21.68;97423.72;5085816;28;19920;-89
2023/11/20 00:11:36;;;;;;;;;;;;;;;28.11;21.74;97423.84;5095781;28;19927;-89
2023/11/20 00:14:02;;;;;;;;;;;;;;;27.92;21.77;97423.91;5095805;28;19955;-89
2023/11/20 00:16:28;;;;;;;;;;;;;;;28.02;21.93;97419.81;5095074;28;19966;-89
2023/11/20 00:18:54;;;;;;;;;;;;;;;28.19;21.59;97416.59;5090620;28;19928;-88
2023/11/20 00:21:20;;;;;;;;;;;;;;;27.53;22.49;97422.13;5086958;28;19920;-89
2023/11/20 00:23:46;;;;;;;;;;;;;;;27.78;22.10;97427.41;5088071;28;19932;-89
2023/11/20 00:26:15;;;;;;;;;;;;;;;27.92;21.95;97417.47;5075395;28;19927;-88
2023/11/20 00:28:44;;;;;;;;;;;;;;;28.06;21.74;97417.59;5080554;28;19920;-88
2023/11/20 00:31:14;;;;;;;;;;;;;;;28.19;21.82;97417.41;5094454;28;19924;-88
2023/11/20 00:33:40;;;;;;;;;;;;;;;27.91;21.95;97415.91;5085657;28;19920;-88
2023/11/20 00:36:06;;;;;;;;;;;;;;;27.83;22.20;97420.31;5081367;28;20023;-88
2023/11/20 00:38:32;;;;;;;;;;;;;;;27.64;22.53;97418.81;5078089;28;19920;-88
2023/11/20 00:40:58;;;;;;;;;;;;;;;27.76;22.28;97424.28;5071214;28;19947;-88
2023/11/20 00:43:25;;;;;;;;;;;;;;;27.90;22.17;97425.63;5092382;28;19939;-88
2023/11/20 00:45:51;;;;;;;;;;;;;;;28.06;22.05;97423.25;5088005;28;19960;-89
2023/11/20 00:48:17;;;;;;;;;;;;;;;28.05;21.99;97426.56;5084063;28;19920;-88
2023/11/20 00:50:43;;;;;;;;;;;;;;;27.71;22.40;97436.19;5088421;28;19962;-88
2023/11/20 00:53:09;;;;;;;;;;;;;;;27.56;22.35;97423.22;5069933;28;20307;-88
2023/11/20 00:55:35;;;;;;;;;;;;;;;27.49;22.75;97427.16;5087355;28;20283;-88
2023/11/20 00:58:01;;;;;;;;;;;;;;;27.04;23.07;97427.97;5078876;28;19935;-88
2023/11/20 01:00:27;;;;;;;;;;;;;;;26.55;23.56;97418.81;5087232;28;19927;-89
2023/11/20 01:02:53;;;;;;;;;;;;;;;26.73;23.46;97416.00;5083038;28;20058;-88
2023/11/20 01:05:21;;;;;;;;;;;;;;;27.01;23.20;97409.16;5086993;28;19928;-89
2023/11/20 01:07:48;;;;;;;;;;;;;;;27.16;23.02;97412.94;5085361;28;19920;-88
2023/11/20 01:10:14;;;;;;;;;;;;;;;26.69;23.69;97418.22;5085985;28;19989;-88
2023/11/20 01:12:40;;;;;;;;;;;;;;;26.82;23.59;97420.88;5094549;28;20098;-88
2023/11/20 01:15:06;;;;;;;;;;;;;;;26.64;23.70;97418.81;5094765;28;19926;-88
2023/11/20 01:17:32;;;;;;;;;;;;;;;26.87;23.43;97417.47;5093696;28;19920;-88
2023/11/20 01:19:59;;;;;;;;;;;;;;;27.20;23.44;97407.91;5083640;28;19927;-88
2023/11/20 01:22:25;;;;;;;;;;;;;;;27.62;22.83;97410.84;5087769;28;19932;-89
2023/11/20 01:24:51;;;;;;;;;;;;;;;28.05;22.24;97415.28;5084495;28;20011;-89
2023/11/20 01:27:17;;;;;;;;;;;;;;;28.26;21.84;97407.78;5058124;28;19967;-89
2023/11/20 01:29:43;;;;;;;;;;;;;;;27.97;21.97;97406.31;5082947;28;19927;-88
2023/11/20 01:32:09;;;;;;;;;;;;;;;27.67;22.43;97406.59;5082919;28;19924;-89
2023/11/20 01:34:35;;;;;;;;;;;;;;;27.57;22.67;97411.47;5081109;28;20417;-89
2023/11/20 01:37:01;;;;;;;;;;;;;;;27.64;22.62;97413.97;5088297;28;19962;-89
2023/11/20 01:39:27;;;;;;;;;;;;;;;27.61;22.76;97414.91;5079707;28;19939;-89
2023/11/20 01:41:53;;;;;;;;;;;;;;;27.36;22.89;97399.13;5081399;28;19926;-89
2023/11/20 01:44:20;;;;;;;;;;;;;;;27.09;23.14;97409.66;5086106;28;20412;-89
2023/11/20 01:46:46;;;;;;;;;;;;;;;26.87;23.53;97403.38;5082795;28;20017;-89
2023/11/20 01:49:12;;;;;;;;;;;;;;;26.63;23.68;97401.13;5081168;28;19921;-89
2023/11/20 01:51:38;;;;;;;;;;;;;;;26.69;23.66;97409.75;5083879;28;20391;-88
2023/11/20 01:54:05;;;;;;;;;;;;;;;26.93;23.46;97396.66;5083921;28;20265;-89
2023/11/20 01:56:31;;;;;;;;;;;;;;;26.93;23.48;97407.16;5087143;28;19921;-89
2023/11/20 01:58:59;;;;;;;;;;;;;;;26.33;23.95;97404.84;5083545;28;20002;-87
2023/11/20 02:01:25;;;;;;;;;;;;;;;26.34;24.22;97406.41;5078918;28;19916;-89
2023/11/20 02:03:54;;;;;;;;;;;;;;;26.23;24.14;97411.72;5079623;28;19926;-89
2023/11/20 02:06:21;;;;;;;;;;;;;;;26.14;24.26;97413.72;5087139;28;20265;-90
2023/11/20 02:08:47;;;;;;;;;;;;;;;26.71;23.74;97408.03;5083993;28;19925;-89
2023/11/20 02:11:13;;;;;;;;;;;;;;;27.28;23.12;97408.38;5088833;28;19928;-90
2023/11/20 02:13:39;;;;;;;;;;;;;;;27.33;22.85;97404.91;5087864;28;19946;-90
2023/11/20 02:16:05;;;;;;;;;;;;;;;27.48;22.76;97408.69;5088587;28;19966;-90
2023/11/20 02:18:33;;;;;;;;;;;;;;;27.80;22.28;97401.53;5087390;28;19923;-90
2023/11/20 02:21:00;;;;;;;;;;;;;;;27.75;22.51;97405.00;5088773;28;20345;-90
2023/11/20 02:23:26;;;;;;;;;;;;;;;27.88;22.44;97403.53;5085107;28;19928;-89
2023/11/20 02:26:11;;;;;;;;;;;;;;;27.62;22.32;97396.72;5089903;28;19916;-90
2023/11/20 02:28:42;;;;;;;;;;;;;;;27.67;22.70;97396.09;5080243;28;19954;-89
2023/11/20 02:31:08;;;;;;;;;;;;;;;27.89;22.21;97388.16;5087978;28;19919;-89
2023/11/20 02:33:35;;;;;;;;;;;;;;;27.99;22.13;97391.75;5085782;28;20370;-89
2023/11/20 02:36:03;;;;;;;;;;;;;;;27.97;22.27;97397.84;5094871;28;19920;-91
2023/11/20 02:38:31;;;;;;;;;;;;;;;28.11;22.11;97385.13;5086008;28;19976;-90
2023/11/20 02:41:00;;;;;;;;;;;;;;;28.25;22.10;97383.63;5095485;28;19920;-90
2023/11/20 02:43:27;;;;;;;;;;;;;;;28.34;21.97;97383.56;5095062;28;19978;-90
2023/11/20 02:45:53;;;;;;;;;;;;;;;28.13;22.03;97385.41;5091940;28;19943;-90
2023/11/20 02:48:21;;;;;;;;;;;;;;;28.02;22.20;97385.16;5078957;28;19927;-89
2023/11/20 02:50:47;;;;;;;;;;;;;;;28.11;22.00;97385.13;5081155;28;19928;-89
2023/11/20 02:53:14;;;;;;;;;;;;;;;27.66;22.58;97379.63;5087884;28;19924;-89
2023/11/20 02:55:40;;;;;;;;;;;;;;;27.65;22.50;97381.69;5088643;28;19920;-90
2023/11/20 02:58:06;;;;;;;;;;;;;;;27.68;22.54;97380.72;5095839;28;19928;-89
2023/11/20 03:00:32;;;;;;;;;;;;;;;27.78;22.54;97378.66;5094184;28;19920;-90
2023/11/20 03:02:58;;;;;;;;;;;;;;;27.84;22.44;97374.69;5087494;28;19927;-91
2023/11/20 03:05:24;;;;;;;;;;;;;;;27.87;22.60;97376.56;5080877;28;19967;-90
2023/11/20 03:07:51;;;;;;;;;;;;;;;27.82;22.47;97382.88;5087545;28;19931;-90
2023/11/20 03:10:18;;;;;;;;;;;;;;;27.55;22.55;97379.34;5086296;28;19920;-89
2023/11/20 03:12:44;;;;;;;;;;;;;;;27.72;22.51;97377.75;5082677;28;19924;-90
2023/11/20 03:15:10;;;;;;;;;;;;;;;27.82;22.48;97382.88;5090633;28;20028;-90
2023/11/20 03:17:37;;;;;;;;;;;;;;;28.12;22.25;97380.25;5095325;28;19924;-89
2023/11/20 03:20:03;;;;;;;;;;;;;;;27.96;22.28;97379.34;5091890;28;19920;-89
2023/11/20 03:22:29;;;;;;;;;;;;;;;27.66;22.38;97374.78;5090203;28;19932;-88
2023/11/20 03:24:55;;;;;;;;;;;;;;;27.81;22.63;97374.88;5088198;28;19921;-89
2023/11/20 03:27:21;;;;;;;;;;;;;;;27.81;22.55;97380.53;5080190;28;19920;-89
2023/11/20 03:29:47;;;;;;;;;;;;;;;27.74;22.54;97373.19;5089270;28;20398;-90
2023/11/20 03:32:13;;;;;;;;;;;;;;;27.86;22.66;97372.22;5084071;28;20296;-90
2023/11/20 03:34:39;;;;;;;;;;;;;;;28.00;22.22;97363.09;5087602;28;20007;-90
2023/11/20 03:37:05;;;;;;;;;;;;;;;28.13;22.02;97364.88;5093838;28;20006;-90
2023/11/20 03:39:32;;;;;;;;;;;;;;;28.33;21.63;97362.25;5094089;28;19943;-90
2023/11/20 03:41:58;;;;;;;;;;;;;;;28.34;21.81;97358.16;5085691;28;20459;-89
2023/11/20 03:44:24;;;;;;;;;;;;;;;27.82;22.20;97365.94;5089378;28;19967;-90
2023/11/20 03:46:50;;;;;;;;;;;;;;;27.69;22.43;97367.41;5089050;28;21209;-90
2023/11/20 03:49:16;;;;;;;;;;;;;;;27.29;22.85;97367.63;5091522;28;19924;-90
2023/11/20 03:51:42;;;;;;;;;;;;;;;27.53;22.44;97360.09;5081444;28;19920;-90
2023/11/20 03:54:08;;;;;;;;;;;;;;;27.84;22.16;97374.69;5084888;28;19990;-90
2023/11/20 03:56:34;;;;;;;;;;;;;;;27.72;22.20;97366.47;5088984;28;19920;-90
2023/11/20 03:59:00;;;;;;;;;;;;;;;27.86;21.97;97360.91;5087538;28;20403;-90
2023/11/20 04:01:26;;;;;;;;;;;;;;;27.99;21.99;97363.53;5091278;28;20407;-89
2023/11/20 04:03:52;;;;;;;;;;;;;;;28.12;21.67;97349.22;5075215;28;19920;-90
2023/11/20 04:06:18;;;;;;;;;;;;;;;27.82;22.11;97359.53;5090990;28;19920;-90
2023/11/20 04:08:44;;;;;;;;;;;;;;;27.72;22.10;97358.78;5086852;28;19920;-90
2023/11/20 04:11:10;;;;;;;;;;;;;;;27.73;22.30;97365.97;5091845;28;19931;-90
2023/11/20 04:13:36;;;;;;;;;;;;;;;27.98;22.07;97357.06;5093149;28;19978;-90
2023/11/20 04:16:04;;;;;;;;;;;;;;;27.81;22.26;97360.78;5090052;28;19928;-90
2023/11/20 04:18:30;;;;;;;;;;;;;;;27.65;22.51;97361.16;5092087;28;19926;-90
2023/11/20 04:20:56;;;;;;;;;;;;;;;27.77;22.50;97369.41;5076507;28;20372;-90
2023/11/20 04:23:23;;;;;;;;;;;;;;;27.87;22.39;97372.97;5095651;28;20014;-90
2023/11/20 04:25:49;;;;;;;;;;;;;;;27.92;22.41;97370.28;5087468;28;19920;-90
2023/11/20 04:28:15;;;;;;;;;;;;;;;27.88;22.39;97360.44;5084449;28;19955;-90
2023/11/20 04:30:41;;;;;;;;;;;;;;;27.85;22.47;97355.75;5086169;28;19965;-90
2023/11/20 04:33:07;;;;;;;;;;;;;;;27.77;22.41;97354.53;5093457;28;19965;-90
2023/11/20 04:35:33;;;;;;;;;;;;;;;27.68;22.89;97355.34;5080052;28;19936;-90
2023/11/20 04:37:59;;;;;;;;;;;;;;;27.86;22.50;97360.91;5090935;28;19919;-90
2023/11/20 04:40:25;;;;;;;;;;;;;;;27.92;22.43;97356.19;5089265;28;19927;-90
2023/11/20 04:42:51;;;;;;;;;;;;;;;28.04;22.37;97349.56;5065838;28;19964;-90
2023/11/20 04:45:17;;;;;;;;;;;;;;;28.39;22.17;97344.19;5077242;28;20078;-90
2023/11/20 04:47:43;;;;;;;;;;;;;;;28.38;22.11;97345.41;5080673;28;20029;-90
2023/11/20 04:50:10;;;;;;;;;;;;;;;28.07;22.53;97345.00;5081773;28;19972;-90
2023/11/20 04:52:36;;;;;;;;;;;;;;;28.08;22.72;97352.19;5092109;28;20387;-91
2023/11/20 04:55:06;;;;;;;;;;;;;;;27.78;23.21;97348.41;5092844;28;19946;-91
2023/11/20 04:57:33;;;;;;;;;;;;;;;27.76;23.03;97350.94;5091256;28;19923;-90
2023/11/20 05:00:00;;;;;;;;;;;;;;;27.57;23.10;97340.97;5089077;28;19943;-90
2023/11/20 05:02:28;;;;;;;;;;;;;;;27.35;23.49;97338.34;5085037;28;20279;-90
2023/11/20 05:04:54;;;;;;;;;;;;;;;27.27;23.85;97342.75;5075955;28;19920;-89
2023/11/20 05:07:20;;;;;;;;;;;;;;;27.56;23.35;97330.97;5087915;28;19925;-89
2023/11/20 05:09:46;;;;;;;;;;;;;;;27.63;23.38;97349.56;5084399;28;20423;-89
2023/11/20 05:12:12;;;;;;;;;;;;;;;27.76;23.12;97350.13;5080567;28;20433;-90
2023/11/20 05:14:38;;;;;;;;;;;;;;;27.52;23.39;97338.00;5085675;28;19950;-90
2023/11/20 05:17:04;;;;;;;;;;;;;;;27.32;23.71;97344.16;5079229;28;19931;-89
2023/11/20 05:19:31;;;;;;;;;;;;;;;27.46;23.62;97342.72;5086221;28;19920;-89
2023/11/20 05:21:57;;;;;;;;;;;;;;;26.56;24.55;97350.75;5085736;28;19919;-89
2023/11/20 05:24:24;;;;;;;;;;;;;;;26.51;24.92;97347.81;5083145;28;20425;-89
2023/11/20 05:26:50;;;;;;;;;;;;;;;26.47;24.80;97345.13;5087128;28;19921;-88
2023/11/20 05:29:16;;;;;;;;;;;;;;;26.42;24.93;97342.94;5080321;28;19994;-89
2023/11/20 05:31:43;;;;;;;;;;;;;;;26.83;24.55;97341.56;5081685;28;20039;-90
2023/11/20 05:34:09;;;;;;;;;;;;;;;27.25;24.01;97344.47;5085950;28;20380;-89
2023/11/20 05:36:35;;;;;;;;;;;;;;;27.70;23.55;97344.34;5082143;28;19928;-89
2023/11/20 05:39:02;;;;;;;;;;;;;;;27.61;23.58;97349.28;5091431;28;19920;-89
2023/11/20 05:41:28;;;;;;;;;;;;;;;27.61;23.72;97338.00;5086810;28;19920;-90
2023/11/20 05:43:54;;;;;;;;;;;;;;;27.36;23.83;97341.94;5084724;28;19927;-89
2023/11/20 05:46:20;;;;;;;;;;;;;;;27.38;23.90;97343.06;5077380;28;19920;-90
2023/11/20 05:48:46;;;;;;;;;;;;;;;27.35;24.09;97338.34;5081973;28;19934;-89
2023/11/20 05:51:18;;;;;;;;;;;;;;;27.34;24.05;97339.59;5081443;28;19967;-90
2023/11/20 05:53:44;;;;;;;;;;;;;;;27.35;24.04;97337.56;5079117;28;20026;-89
2023/11/20 05:56:11;;;;;;;;;;;;;;;27.36;24.08;97344.75;5078336;28;19924;-89
2023/11/20 05:58:37;;;;;;;;;;;;;;;27.42;24.07;97342.13;5087604;28;19924;-90
2023/11/20 06:01:03;;;;;;;;;;;;;;;27.53;24.01;97342.38;5085675;28;19930;-90
2023/11/20 06:03:29;;;;;;;;;;;;;;;27.66;23.63;97346.56;5083878;28;20408;-90
2023/11/20 06:05:55;;;;;;;;;;;;;;;27.61;23.67;97347.22;5084223;28;19920;-89
2023/11/20 06:08:22;;;;;;;;;;;;;;;27.50;23.87;97355.41;5090846;28;22734;-90
2023/11/20 06:10:49;;;;;;;;;;;;;;;27.40;24.00;97354.66;5079912;28;19921;-90
2023/11/20 06:13:15;;;;;;;;;;;;;;;27.76;23.55;97353.75;5083400;28;19920;-89
2023/11/20 06:15:41;;;;;;;;;;;;;;;27.72;23.72;97353.16;5082110;28;19916;-89
2023/11/20 06:18:07;;;;;;;;;;;;;;;27.50;24.04;97349.75;5085430;28;19920;-90
2023/11/20 06:20:33;;;;;;;;;;;;;;;27.40;24.03;97353.84;5083898;28;20022;-93
2023/11/20 06:23:01;;;;;;;;;;;;;;;27.27;24.21;97356.06;5079251;28;19924;-90
2023/11/20 06:25:27;;;;;;;;;;;;;;;27.49;23.87;97350.25;5087693;28;19928;-91
2023/11/20 06:27:53;;;;;;;;;;;;;;;27.37;24.17;97355.63;5090897;28;19924;-88
2023/11/20 06:30:19;;;;;;;;;;;;;;;27.26;24.15;97355.28;5081444;28;19920;-90
2023/11/20 06:32:45;;;;;;;;;;;;;;;27.13;24.21;97346.22;5078529;28;19920;-89
2023/11/20 06:35:11;;;;;;;;;;;;;;;27.26;24.21;97358.09;5097120;28;20010;-89
2023/11/20 06:37:37;;;;;;;;;;;;;;;27.51;23.79;97356.97;5083125;28;20400;-91
2023/11/20 06:40:06;;;;;;;;;;;;;;;27.27;24.13;97358.88;5087888;28;19970;-90
2023/11/20 06:42:32;;;;;;;;;;;;;;;27.32;24.12;97361.06;5085823;28;19968;-90
2023/11/20 06:44:58;;;;;;;;;;;;;;;27.67;23.66;97361.47;5067927;28;20332;-88
2023/11/20 06:47:24;;;;;;;;;;;;;;;27.55;23.90;97368.06;5092260;28;20160;-89
2023/11/20 06:49:50;;;;;;;;;;;;;;;27.45;24.10;97364.50;5090909;28;19967;-90
2023/11/20 06:52:17;;;;;;;;;;;;;;;27.53;23.98;97362.91;5074073;28;19934;-89
2023/11/20 06:54:43;;;;;;;;;;;;;;;27.18;24.36;97361.72;5092858;28;19930;-90
2023/11/20 06:57:10;;;;;;;;;;;;;;;27.30;24.33;97370.00;5095363;28;19928;-90
2023/11/20 06:59:36;;;;;;;;;;;;;;;26.56;24.98;97366.88;5086629;28;19997;-90
2023/11/20 07:02:03;;;;;;;;;;;;;;;26.67;25.12;97370.81;5093792;28;19958;-89
2023/11/20 07:04:35;;;;;;;;;;;;;;;27.04;24.63;97365.97;5091617;28;19951;-90
2023/11/20 07:07:01;;;;;;;;;;;;;;;27.04;24.58;97368.00;5089292;28;19920;-90
2023/11/20 07:09:30;;;;;;;;;;;;;;;27.26;24.31;97371.41;5085319;28;19925;-90
2023/11/20 07:11:56;;;;;;;;;;;;;;;27.59;23.96;97363.81;5086513;28;19924;-89
2023/11/20 07:14:23;;;;;;;;;;;;;;;27.55;24.19;97363.22;5087097;28;19920;-89
2023/11/20 07:16:49;;;;;;;;;;;;;;;27.56;24.13;97370.44;5088111;28;20019;-89
2023/11/20 07:19:15;;;;;;;;;;;;;;;27.14;24.66;97372.38;5082876;28;19943;-89
2023/11/20 07:21:44;;;;;;;;;;;;;;;27.43;24.67;97372.66;5083305;28;19973;-89
2023/11/20 07:24:10;;;;;;;;;;;;;;;27.45;24.44;97364.50;5065723;28;20311;-89
2023/11/20 07:26:36;;;;;;;;;;;;;;;27.80;23.97;97374.09;5086201;28;20392;-91
2023/11/20 07:29:03;;;;;;;;;;;;;;;28.04;23.73;97377.00;5086829;28;19956;-90
2023/11/20 07:31:31;;;;;;;;;;;;;;;28.19;23.57;97371.44;5089233;28;20383;-90
2023/11/20 07:33:57;;;;;;;;;;;;;;;28.36;23.39;97376.19;5080916;28;19924;-89
2023/11/20 07:36:24;;;;;;;;;;;;;;;27.75;23.89;97374.75;5088498;28;20053;-89
2023/11/20 07:38:50;;;;;;;;;;;;;;;27.77;24.04;97369.41;5085273;28;20394;-89
2023/11/20 07:41:16;;;;;;;;;;;;;;;27.67;24.31;97365.06;5086166;28;19927;-90
2023/11/20 07:43:42;;;;;;;;;;;;;;;27.81;24.09;97366.41;5086119;28;19942;-89
2023/11/20 07:46:09;;;;;;;;;;;;;;;28.08;23.80;97369.91;5092697;28;19927;-90
2023/11/20 07:48:35;;;;;;;;;;;;;;;28.08;23.95;97369.13;5090884;28;20329;-90
2023/11/20 07:51:02;;;;;;;;;;;;;;;28.19;23.71;97368.63;5093524;28;19928;-90
2023/11/20 07:53:28;;;;;;;;;;;;;;;28.29;23.52;97364.47;5093389;28;19924;-90
2023/11/20 07:55:54;;;;;;;;;;;;;;;28.15;23.76;97362.34;5092442;28;19920;-90
2023/11/20 07:58:20;;;;;;;;;;;;;;;27.90;24.07;97364.34;5092848;28;19973;-90
2023/11/20 08:00:47;;;;;;;;;;;;;;;28.24;23.63;97360.25;5087900;28;19920;-90
2023/11/20 08:03:13;;;;;;;;;;;;;;;28.06;24.05;97363.19;5092092;28;19927;-89
2023/11/20 08:05:41;;;;;;;;;;;;;;;27.90;24.52;97357.91;5092516;28;19947;-89
2023/11/20 08:08:07;;;;;;;;;;;;;;;27.85;24.31;97364.19;5090658;28;19963;-88
2023/11/20 08:10:33;;;;;;;;;;;;;;;27.98;24.20;97365.53;5092698;28;19916;-88
2023/11/20 08:12:59;;;;;;;;;;;;;;;28.04;24.44;97362.88;5089237;28;19950;-89
2023/11/20 08:15:25;;;;;;;;;;;;;;;28.12;24.34;97368.97;5088904;28;20007;-89
2023/11/20 08:17:52;;;;;;;;;;;;;;;27.97;24.25;97363.22;5068616;28;20402;-89
2023/11/20 08:20:19;;;;;;;;;;;;;;;27.60;24.37;97362.59;5086956;28;20399;-89
2023/11/20 08:22:45;;;;;;;;;;;;;;;27.27;25.09;97359.66;5081818;28;19928;-89
2023/11/20 08:25:11;;;;;;;;;;;;;;;27.19;25.34;97369.69;5089568;28;20026;-89
2023/11/20 08:27:40;;;;;;;;;;;;;;;27.09;25.16;97364.56;5085074;28;20450;-88
2023/11/20 08:30:08;;;;;;;;;;;;;;;26.78;25.74;97366.75;5089457;28;19931;-89
2023/11/20 08:32:35;;;;;;;;;;;;;;;27.21;25.00;97364.34;5084564;28;19928;-88
2023/11/20 08:35:01;;;;;;;;;;;;;;;27.21;25.08;97363.59;5083227;28;19925;-88
2023/11/20 08:37:27;;;;;;;;;;;;;;;27.56;24.84;97370.44;5083645;28;20006;-89
2023/11/20 08:39:53;;;;;;;;;;;;;;;27.48;24.72;97365.59;5091033;28;19931;-89
2023/11/20 08:42:20;;;;;;;;;;;;;;;27.50;25.19;97363.84;5074075;28;19920;-89
2023/11/20 08:44:46;;;;;;;;;;;;;;;27.97;24.58;97368.84;5089486;28;19924;-89
2023/11/20 08:47:12;;;;;;;;;;;;;;;28.27;24.33;97358.53;5088515;28;19965;-88
2023/11/20 08:49:38;;;;;;;;;;;;;;;28.53;23.78;97365.25;5069746;28;19925;-88
2023/11/20 08:52:04;;;;;;;;;;;;;;;28.52;23.61;97367.28;5081016;28;20326;-87
2023/11/20 08:54:31;;;;;;;;;;;;;;;28.42;23.86;97367.84;5089469;28;19963;-89
2023/11/20 08:56:57;;;;;;;;;;;;;;;28.31;23.90;97356.31;5086970;28;19931;-88
2023/11/20 08:59:23;;;;;;;;;;;;;;;28.51;23.82;97359.31;5079954;28;20428;-89
2023/11/20 09:01:49;;;;;;;;;;;;;;;28.14;23.83;97370.06;5082479;28;20384;-89
2023/11/20 09:04:15;;;;;;;;;;;;;;;28.30;24.15;97355.53;5063331;28;20368;-86
2023/11/20 09:06:43;;;;;;;;;;;;;;;28.57;23.91;97360.97;5082146;28;20264;-89
2023/11/20 09:09:09;;;;;;;;;;;;;;;28.86;23.51;97354.66;5083940;28;20376;-89
2023/11/20 09:11:35;;;;;;;;;;;;;;;28.70;23.40;97355.91;5082101;28;19916;-90
2023/11/20 09:14:01;;;;;;;;;;;;;;;28.36;23.63;97358.47;5062319;28;19939;-88
2023/11/20 09:16:27;;;;;;;;;;;;;;;28.17;24.25;97365.50;5082617;28;19927;-90
2023/11/20 09:18:53;;;;;;;;;;;;;;;28.27;24.19;97356.47;5083998;28;19944;-89
2023/11/20 09:21:23;;;;;;;;;;;;;;;28.33;24.33;97350.97;5086722;28;19998;-89
2023/11/20 09:23:49;;;;;;;;;;;;;;;28.55;23.79;97354.25;5084390;28;19972;-88
2023/11/20 09:26:15;;;;;;;;;;;;;;;27.77;24.61;97355.28;5082731;28;20477;-88
2023/11/20 09:28:46;;;;;;;;;;;;;;;27.99;24.76;97352.25;5087701;28;20387;-89
2023/11/20 09:31:18;;;;;;;;;;;;;;;27.96;24.70;97345.50;5092299;28;20280;-89
2023/11/20 09:33:45;;;;;;;;;;;;;;;27.91;24.21;97346.13;5091217;28;19916;-90
2023/11/20 09:36:11;;;;;;;;;;;;;;;28.02;24.42;97343.63;5082736;28;20652;-90
2023/11/20 09:38:38;;;;;;;;;;;;;;;28.34;24.21;97333.53;5089162;28;19931;-89
2023/11/20 09:41:04;;;;;;;;;;;;;;;28.36;24.15;97347.16;5082996;28;20003;-88
2023/11/20 09:43:31;;;;;;;;;;;;;;;28.36;23.77;97330.22;5083767;28;19920;-86
2023/11/20 09:45:58;;;;;;;;;;;;;;;27.95;24.61;97337.50;5086097;28;20010;-90
2023/11/20 09:48:25;;;;;;;;;;;;;;;28.47;23.97;97331.25;5081451;28;19920;-91
2023/11/20 09:50:51;;;;;;;;;;;;;;;28.93;23.51;97331.69;5078513;28;19920;-89
2023/11/20 09:53:17;;;;;;;;;;;;;;;28.81;23.63;97338.38;5085327;28;20326;-90
2023/11/20 09:55:43;;;;;;;;;;;;;;;28.84;24.10;97323.28;5064687;28;20039;-91
2023/11/20 09:58:09;;;;;;;;;;;;;;;29.12;23.58;97326.63;5084644;28;19926;-88
2023/11/20 10:00:35;;;;;;;;;;;;;;;29.34;23.09;97327.84;5086352;28;19920;-90
2023/11/20 10:03:04;;;;;;;;;;;;;;;29.16;23.58;97330.03;5090807;28;19920;-88
2023/11/20 10:05:37;;;;;;;;;;;;;;;28.59;23.72;97326.66;5084481;28;19923;-92
2023/11/20 10:08:06;;;;;;;;;;;;;;;28.63;23.92;97332.91;5087193;28;19927;-92
2023/11/20 10:10:34;;;;;;;;;;;;;;;28.66;23.69;97324.22;5076760;28;19921;-91
2023/11/20 10:13:04;;;;;;;;;;;;;;;28.59;24.13;97324.59;5086491;28;20279;-91
2023/11/20 10:15:33;;;;;;;;;;;;;;;28.82;23.71;97322.22;5083792;28;19921;-89
2023/11/20 10:18:00;;;;;;;;;;;;;;;29.22;23.64;97323.25;5083691;28;19991;-87
2023/11/20 10:20:26;;;;;;;;;;;;;;;29.31;23.48;97314.66;5088941;28;19943;-92
2023/11/20 10:22:52;;;;;;;;;;;;;;;29.45;23.28;97323.66;5064211;28;19925;-91
2023/11/20 10:25:19;;;;;;;;;;;;;;;29.72;23.14;97315.59;5090644;28;20282;-90
2023/11/20 10:27:45;;;;;;;;;;;;;;;29.42;23.51;97325.41;5091357;28;19921;-91
2023/11/20 10:30:12;;;;;;;;;;;;;;;29.09;23.21;97316.28;5088384;28;19946;-92
2023/11/20 10:32:40;;;;;;;;;;;;;;;29.03;23.78;97321.06;5083072;28;20303;-95
2023/11/20 10:35:13;;;;;;;;;;;;;;;28.73;23.31;97315.38;5065663;28;19924;-92
2023/11/20 10:37:55;;;;;;;;;;;;;;;28.82;24.26;97314.53;5094482;28;19935;-91
2023/11/20 10:40:22;;;;;;;;;;;;;;;29.31;23.42;97311.06;5084277;28;19966;-90
2023/11/20 10:42:48;;;;;;;;;;;;;;;29.24;23.59;97302.97;5094007;28;20011;-90
2023/11/20 10:45:14;;;;;;;;;;;;;;;29.08;23.69;97309.84;5071291;28;20414;-89
2023/11/20 10:47:41;;;;;;;;;;;;;;;28.43;24.40;97302.41;5088474;28;19920;-90
2023/11/20 10:50:10;;;;;;;;;;;;;;;28.18;24.45;97302.91;5091199;28;19970;-90
2023/11/20 10:52:39;;;;;;;;;;;;;;;28.45;24.95;97301.94;5089253;28;19924;-90
2023/11/20 10:55:09;;;;;;;;;;;;;;;29.01;24.32;97298.94;5085308;28;20376;-90
2023/11/20 10:57:35;;;;;;;;;;;;;;;29.50;23.54;97294.66;5086516;28;19920;-89
2023/11/20 11:00:09;;;;;;;;;;;;;;;29.55;23.69;97282.66;5087232;28;19927;-90
2023/11/20 11:02:40;;;;;;;;;;;;;;;29.46;23.84;97282.75;5087922;28;19963;-91
2023/11/20 11:05:08;;;;;;;;;;;;;;;29.60;23.31;97276.28;5086058;28;19993;-89
2023/11/20 11:07:38;;;;;;;;;;;;;;;29.59;23.55;97281.19;5087676;28;20435;-89
2023/11/20 11:10:14;;;;;;;;;;;;;;;29.65;23.53;97270.72;5087414;28;19920;-90
2023/11/20 11:12:43;;;;;;;;;;;;;;;29.66;23.81;97272.31;5084971;28;19927;-90
2023/11/20 11:15:13;;;;;;;;;;;;;;;29.72;23.51;97278.81;5095504;28;19965;-90
2023/11/20 11:17:51;;;;;;;;;;;;;;;29.89;23.40;97270.59;5090557;28;19920;-91
2023/11/20 11:20:23;;;;;;;;;;;;;;;29.64;23.50;97277.66;5084287;28;19974;-90
2023/11/20 11:22:55;;;;;;;;;;;;;;;29.43;23.68;97265.50;5078971;28;20016;-90
2023/11/20 11:25:24;;;;;;;;;;;;;;;29.48;23.99;97268.94;5093329;28;19920;-90
2023/11/20 11:27:57;;;;;;;;;;;;;;;28.83;24.45;97270.84;5085788;28;19942;-89
2023/11/20 11:30:24;;;;;;;;;;;;;;;29.14;24.19;97259.84;5084143;28;19920;-89
2023/11/20 11:33:08;;;;;;;;;;;;;;;29.37;24.05;97261.03;5087267;28;19986;-92
2023/11/20 11:35:46;;;;;;;;;;;;;;;29.58;23.41;97259.81;5082688;28;19977;-90
2023/11/20 11:38:18;;;;;;;;;;;;;;;29.41;23.83;97265.22;5083928;28;19954;-89
2023/11/20 11:41:10;;;;;;;;;;;;;;;29.02;24.14;97258.09;5089426;28;20359;-89
2023/11/20 11:44:02;;;;;;;;;;;;;;;29.05;24.04;97259.19;5082673;28;20411;-90
2023/11/20 11:46:33;;;;;;;;;;;;;;;28.93;24.24;97255.38;5085384;28;20390;-89
2023/11/20 11:49:21;;;;;;;;;;;;;;;28.80;24.47;97257.69;5083268;28;20014;-88
2023/11/20 11:51:55;;;;;;;;;;;;;;;28.98;24.16;97257.53;5087841;28;20388;-89
2023/11/20 11:54:23;;;;;;;;;;;;;;;29.45;23.80;97250.88;5087079;28;19924;-89
2023/11/20 11:56:49;;;;;;;;;;;;;;;29.23;23.88;97254.13;5071780;28;19943;-89
2023/11/20 11:59:44;;;;;;;;;;;;;;;29.01;23.87;97252.94;5084832;28;20402;-89
2023/11/20 12:02:12;;;;;;;;;;;;;;;29.15;24.01;97247.28;5057219;28;19928;-89
2023/11/20 12:04:57;;;;;;;;;;;;;;;29.17;23.81;97244.72;5086094;28;20292;-89
2023/11/20 12:07:35;;;;;;;;;;;;;;;29.05;23.98;97250.69;5085495;28;19920;-89
2023/11/20 12:10:03;;;;;;;;;;;;;;;29.11;24.64;97243.09;5077743;28;19972;-89
2023/11/20 12:12:57;;;;;;;;;;;;;;;29.05;24.25;97245.03;5088857;28;20311;-90
2023/11/20 12:15:29;;;;;;;;;;;;;;;29.15;24.36;97238.03;5085493;28;19990;-90
2023/11/20 12:17:58;;;;;;;;;;;;;;;29.58;23.71;97228.69;5090468;28;20529;-89
2023/11/20 12:20:24;;;;;;;;;;;;;;;29.59;23.34;97232.31;5085654;28;19928;-89
2023/11/20 12:22:52;;;;;;;;;;;;;;;29.37;23.88;97233.53;5065159;28;19938;-89
2023/11/20 12:25:18;;;;;;;;;;;;;;;29.37;23.90;97235.56;5082420;28;19928;-89
2023/11/20 12:27:44;;;;;;;;;;;;;;;29.27;24.04;97231.28;5068101;28;20325;-89
2023/11/20 12:30:11;;;;;;;;;;;;;;;29.18;23.88;97231.41;5082902;28;20391;-89
2023/11/20 12:32:37;;;;;;;;;;;;;;;28.94;24.77;97223.00;5084801;28;19925;-89
2023/11/20 12:35:03;;;;;;;;;;;;;;;29.01;24.47;97231.09;5070043;28;20329;-89
2023/11/20 12:37:31;;;;;;;;;;;;;;;29.07;24.33;97225.53;5085682;28;19968;-89
2023/11/20 12:39:58;;;;;;;;;;;;;;;28.96;24.45;97208.41;5090015;28;20375;-89
2023/11/20 12:42:27;;;;;;;;;;;;;;;29.08;24.12;97225.03;5076620;28;19920;-89
2023/11/20 12:44:53;;;;;;;;;;;;;;;28.98;24.33;97223.63;5084561;28;20015;-87
2023/11/20 12:47:22;;;;;;;;;;;;;;;29.16;24.22;97223.41;5068948;28;19921;-89
2023/11/20 12:49:48;;;;;;;;;;;;;;;29.20;24.26;97218.34;5083184;28;19952;-88